| time (UTC) | temp F | wind direction | speed knots | gust knots | rain 1hr in | rain 24hr in | rain mn in | humidity % | barometer mb |
| 20260508213014 | 82 | 167 | 0.9 | 5.2 | 0.00 | 0.00 | 0.00 | 17 | 1016.5 |
| 20260508211515 | 82 | 193 | 0.9 | 3.5 | 0.00 | 0.00 | 0.00 | 18 | 1016.7 |
| 20260508210017 | 82 | 199 | 0.9 | 6.1 | 0.00 | 0.00 | 0.00 | 17 | 1016.8 |
| 20260508204531 | 82 | 130 | 0.9 | 2.6 | 0.00 | 0.00 | 0.00 | 17 | 1017.0 |
| 20260508203028 | 80 | 187 | 1.7 | 5.2 | 0.00 | 0.00 | 0.00 | 16 | 1017.1 |
| 20260508201513 | 80 | 96 | 1.7 | 6.1 | 0.00 | 0.00 | 0.00 | 18 | 1017.4 |
| 20260508200016 | 80 | 135 | 0.9 | 3.5 | 0.00 | 0.00 | 0.00 | 18 | 1017.4 |
| 20260508194523 | 80 | 167 | 0.9 | 3.5 | 0.00 | 0.00 | 0.00 | 18 | 1017.4 |
| 20260508193026 | 78 | 101 | 0.9 | 5.2 | 0.00 | 0.00 | 0.00 | 20 | 1017.4 |
| 20260508191531 | 77 | 128 | 1.7 | 6.1 | 0.00 | 0.00 | 0.00 | 21 | 1017.7 |
| 20260508190022 | 77 | 129 | 1.7 | 5.2 | 0.00 | 0.00 | 0.00 | 21 | 1017.8 |
| 20260508184520 | 77 | 135 | 3.5 | 8.7 | 0.00 | 0.00 | 0.00 | 21 | 1018.0 |
| 20260508183022 | 77 | 125 | 2.6 | 7.8 | 0.00 | 0.00 | 0.00 | 22 | 1018.0 |
| 20260508181525 | 77 | 105 | 2.6 | 7.8 | 0.00 | 0.00 | 0.00 | 22 | 1018.1 |
| 20260508180030 | 76 | 179 | 1.7 | 7.0 | 0.00 | 0.00 | 0.00 | 22 | 1018.1 |
| 20260508174516 | 75 | 205 | 0.0 | 5.2 | 0.00 | 0.00 | 0.00 | 25 | 1018.2 |
| 20260508173021 | 73 | 123 | 0.9 | 2.6 | 0.00 | 0.00 | 0.00 | 31 | 1018.2 |
| 20260508171525 | 75 | 136 | 0.0 | 5.2 | 0.00 | 0.00 | 0.00 | 27 | 1018.1 |
| 20260508170030 | 75 | 162 | 0.0 | 1.7 | 0.00 | 0.00 | 0.00 | 24 | 1018.0 |
| 20260508164528 | 74 | 179 | 0.9 | 4.3 | 0.00 | 0.00 | 0.00 | 29 | 1017.9 |
| 20260508163018 | 74 | 153 | 0.0 | 2.6 | 0.00 | 0.00 | 0.00 | 29 | 1017.8 |
| 20260508161521 | 72 | 129 | 0.9 | 2.6 | 0.00 | 0.00 | 0.00 | 31 | 1017.8 |
| 20260508160049 | 71 | 129 | 0.0 | 1.7 | 0.00 | 0.00 | 0.00 | 31 | 1017.6 |
| 20260508154529 | 71 | 232 | 0.0 | 1.7 | 0.00 | 0.00 | 0.00 | 31 | 1017.6 |
| 20260508153033 | 69 | 205 | 0.0 | 0.9 | 0.00 | 0.00 | 0.00 | 33 | 1017.5 |
| 20260508151520 | 69 | 210 | 0.0 | 0.9 | 0.00 | 0.00 | 0.00 | 35 | 1017.4 |
| 20260508150027 | 67 | 217 | 0.0 | 0.9 | 0.00 | 0.00 | 0.00 | 37 | 1017.4 |
| 20260508144510 | 66 | 172 | 0.0 | 0.9 | 0.00 | 0.00 | 0.00 | 40 | 1017.3 |
| 20260508143011 | 64 | 172 | 0.0 | 0.0 | 0.00 | 0.00 | 0.00 | 45 | 1017.3 |
| 20260508141518 | 61 | 176 | 0.0 | 0.0 | 0.00 | 0.00 | 0.00 | 51 | 1017.3 |
| 20260508140020 | 57 | 176 | 0.0 | 0.0 | 0.00 | 0.00 | 0.00 | 57 | 1017.2 |
| 20260508134508 | 51 | 176 | 0.0 | 0.0 | 0.00 | 0.00 | 0.00 | 69 | 1017.1 |
| 20260508133015 | 47 | 176 | 0.0 | 0.0 | 0.00 | 0.00 | 0.00 | 76 | 1016.9 |
| 20260508131513 | 46 | 176 | 0.0 | 0.0 | 0.00 | 0.00 | 0.00 | 76 | 1016.8 |
| 20260508130017 | 45 | 176 | 0.0 | 0.0 | 0.00 | 0.00 | 0.00 | 76 | 1016.6 |
| 20260508124524 | 45 | 176 | 0.0 | 0.0 | 0.00 | 0.00 | 0.00 | 75 | 1016.4 |
| 20260508123006 | 45 | 175 | 0.0 | 0.0 | 0.00 | 0.00 | 0.00 | 76 | 1016.3 |
| 20260508121528 | 45 | 176 | 0.0 | 0.0 | 0.00 | 0.00 | 0.00 | 75 | 1016.0 |
| 20260508120014 | 46 | 176 | 0.0 | 0.0 | 0.00 | 0.00 | 0.00 | 74 | 1016.0 |
| 20260508114519 | 46 | 176 | 0.0 | 0.0 | 0.00 | 0.00 | 0.00 | 74 | 1016.0 |
| 20260508113024 | 47 | 176 | 0.0 | 0.0 | 0.00 | 0.00 | 0.00 | 73 | 1016.0 |
| 20260508111504 | 47 | 175 | 0.0 | 0.0 | 0.00 | 0.00 | 0.00 | 74 | 1015.9 |
| 20260508110011 | 46 | 176 | 0.0 | 0.0 | 0.00 | 0.00 | 0.00 | 74 | 1015.9 |
| 20260508104515 | 46 | 175 | 0.0 | 0.0 | 0.00 | 0.00 | 0.00 | 73 | 1015.8 |
| 20260508103019 | 47 | 175 | 0.0 | 0.0 | 0.00 | 0.00 | 0.00 | 72 | 1015.7 |
| 20260508101522 | 47 | 175 | 0.0 | 0.0 | 0.00 | 0.00 | 0.00 | 72 | 1015.6 |
| 20260508100026 | 47 | 221 | 0.0 | 0.9 | 0.00 | 0.00 | 0.00 | 71 | 1015.6 |
| 20260508094509 | 48 | 221 | 0.0 | 0.0 | 0.00 | 0.00 | 0.00 | 71 | 1015.5 |
| 20260508093022 | 48 | 221 | 0.0 | 0.9 | 0.00 | 0.00 | 0.00 | 70 | 1015.4 |
| 20260508091521 | 48 | 221 | 0.0 | 0.0 | 0.00 | 0.00 | 0.00 | 69 | 1015.4 |
| 20260508090024 | 48 | 221 | 0.0 | 0.0 | 0.00 | 0.00 | 0.00 | 69 | 1015.3 |
| 20260508084526 | 48 | 221 | 0.0 | 0.0 | 0.00 | 0.00 | 0.00 | 69 | 1015.5 |
| 20260508083035 | 49 | 221 | 0.0 | 0.0 | 0.00 | 0.00 | 0.00 | 69 | 1015.6 |
| 20260508081516 | 49 | 222 | 0.0 | 0.0 | 0.00 | 0.00 | 0.00 | 68 | 1015.5 |
| 20260508080020 | 49 | 222 | 0.0 | 0.0 | 0.00 | 0.00 | 0.00 | 68 | 1015.4 |
| 20260508074504 | 50 | 222 | 0.0 | 0.0 | 0.00 | 0.00 | 0.00 | 65 | 1015.4 |
| 20260508073006 | 50 | 222 | 0.0 | 0.0 | 0.00 | 0.00 | 0.00 | 64 | 1015.3 |
| 20260508071507 | 51 | 223 | 0.0 | 0.0 | 0.00 | 0.00 | 0.00 | 62 | 1015.2 |
| 20260508070009 | 52 | 223 | 0.0 | 0.0 | 0.00 | 0.00 | 0.00 | 61 | 1015.1 |
| 20260508064527 | 52 | 223 | 0.0 | 0.0 | 0.00 | 0.00 | 0.00 | 61 | 1015.1 |
| 20260508063008 | 53 | 223 | 0.0 | 0.0 | 0.00 | 0.00 | 0.00 | 59 | 1015.1 |
| 20260508061511 | 54 | 223 | 0.0 | 0.9 | 0.00 | 0.00 | 0.00 | 57 | 1015.1 |
| 20260508060009 | 54 | 224 | 0.0 | 0.0 | 0.00 | 0.00 | 0.00 | 55 | 1014.9 |
| 20260508054512 | 55 | 223 | 0.0 | 0.0 | 0.00 | 0.00 | 0.00 | 53 | 1014.8 |
| 20260508053012 | 56 | 224 | 0.0 | 0.9 | 0.00 | 0.00 | 0.00 | 51 | 1014.7 |
| 20260508051507 | 57 | 224 | 0.0 | 1.7 | 0.00 | 0.00 | 0.00 | 51 | 1014.5 |
| 20260508050014 | 57 | 183 | 0.0 | 0.0 | 0.00 | 0.00 | 0.00 | 50 | 1014.5 |
| 20260508044512 | 57 | 219 | 0.0 | 0.0 | 0.00 | 0.00 | 0.00 | 48 | 1014.6 |
| 20260508043013 | 58 | 219 | 0.0 | 0.0 | 0.00 | 0.00 | 0.00 | 46 | 1014.6 |
| 20260508041515 | 58 | 233 | 0.0 | 0.0 | 0.00 | 0.00 | 0.00 | 46 | 1014.4 |
| 20260508040012 | 59 | 233 | 0.0 | 0.0 | 0.00 | 0.00 | 0.00 | 44 | 1014.3 |
| 20260508034512 | 60 | 233 | 0.0 | 0.0 | 0.00 | 0.00 | 0.00 | 42 | 1014.2 |
| 20260508033018 | 61 | 233 | 0.0 | 0.0 | 0.00 | 0.00 | 0.00 | 40 | 1014.2 |
| 20260508031514 | 63 | 233 | 0.0 | 0.9 | 0.00 | 0.00 | 0.00 | 38 | 1014.0 |
| 20260508030014 | 63 | 234 | 0.0 | 0.0 | 0.00 | 0.00 | 0.00 | 39 | 1013.9 |
| 20260508024524 | 65 | 234 | 0.0 | 0.9 | 0.00 | 0.00 | 0.00 | 37 | 1013.9 |
| 20260508023022 | 67 | 234 | 0.0 | 0.0 | 0.00 | 0.00 | 0.00 | 32 | 1013.8 |
| 20260508021517 | 69 | 234 | 0.0 | 0.0 | 0.00 | 0.00 | 0.00 | 29 | 1013.8 |
| 20260508020016 | 71 | 233 | 0.0 | 0.0 | 0.00 | 0.00 | 0.00 | 27 | 1013.7 |
| 20260508014519 | 73 | 235 | 0.0 | 0.9 | 0.00 | 0.00 | 0.00 | 25 | 1013.7 |
| 20260508013017 | 74 | 235 | 0.0 | 0.9 | 0.00 | 0.00 | 0.00 | 23 | 1013.7 |
| 20260508011517 | 76 | 257 | 0.0 | 2.6 | 0.00 | 0.00 | 0.00 | 23 | 1013.7 |
| 20260508010020 | 77 | 213 | 0.0 | 2.6 | 0.00 | 0.00 | 0.00 | 22 | 1013.7 |
| 20260508004515 | 78 | 181 | 0.0 | 0.9 | 0.00 | 0.00 | 0.00 | 21 | 1013.8 |
| 20260508003007 | 77 | 173 | 0.0 | 0.9 | 0.00 | 0.00 | 0.00 | 22 | 1013.9 |
| 20260508001513 | 75 | 248 | 0.0 | 1.7 | 0.00 | 0.00 | 0.00 | 22 | 1014.1 |
| 20260508000019 | 76 | 177 | 0.0 | 0.9 | 0.00 | 0.00 | 0.00 | 23 | 1014.2 |
| 20260507234520 | 78 | 249 | 0.0 | 0.9 | 0.00 | 0.00 | 0.00 | 22 | 1014.4 |
| 20260507233018 | 79 | 259 | 0.9 | 2.6 | 0.00 | 0.00 | 0.00 | 20 | 1014.5 |
| 20260507231508 | 80 | 247 | 0.9 | 1.7 | 0.00 | 0.00 | 0.00 | 19 | 1014.6 |
| 20260507230014 | 80 | 221 | 0.9 | 3.5 | 0.00 | 0.00 | 0.00 | 20 | 1014.9 |
| 20260507224518 | 79 | 260 | 1.7 | 3.5 | 0.00 | 0.00 | 0.00 | 21 | 1015.1 |
| 20260507223023 | 81 | 221 | 0.0 | 3.5 | 0.00 | 0.00 | 0.00 | 22 | 1015.4 |
| 20260507221520 | 79 | 131 | 0.9 | 6.1 | 0.00 | 0.00 | 0.00 | 22 | 1015.5 |
| 20260507220011 | 81 | 184 | 0.9 | 3.5 | 0.00 | 0.00 | 0.00 | 21 | 1015.6 |
| 20260507214515 | 80 | 131 | 2.6 | 6.1 | 0.00 | 0.00 | 0.00 | 21 | 1015.8 |